sensor_id;sensor_type;location;lat;lon;timestamp;pressure;altitude;pressure_sealevel;temperature;humidity
72636;BME280;60679;48.888;15.544;2023-01-15T00:01:20;95623.47;;;6.13;68.31
72636;BME280;60679;48.888;15.544;2023-01-15T00:03:46;95623.28;;;6.15;68.34
72636;BME280;60679;48.888;15.544;2023-01-15T00:06:12;95606.38;;;6.08;68.28
72636;BME280;60679;48.888;15.544;2023-01-15T00:08:37;95604.13;;;6.05;68.28
72636;BME280;60679;48.888;15.544;2023-01-15T00:11:03;95597.56;;;6.01;68.36
72636;BME280;60679;48.888;15.544;2023-01-15T00:13:29;95596.13;;;5.98;68.25
72636;BME280;60679;48.888;15.544;2023-01-15T00:16:11;95596.97;;;5.92;68.19
72636;BME280;60679;48.888;15.544;2023-01-15T00:18:37;95568.94;;;5.88;68.24
72636;BME280;60679;48.888;15.544;2023-01-15T00:21:05;95564.81;;;5.92;68.32
72636;BME280;60679;48.888;15.544;2023-01-15T00:23:31;95555.53;;;5.88;68.38
72636;BME280;60679;48.888;15.544;2023-01-15T00:26:17;95549.34;;;5.88;68.50
72636;BME280;60679;48.888;15.544;2023-01-15T00:29:01;95549.16;;;5.89;68.46
72636;BME280;60679;48.888;15.544;2023-01-15T00:31:27;95546.25;;;5.91;68.30
72636;BME280;60679;48.888;15.544;2023-01-15T00:33:53;95564.00;;;5.92;68.35
72636;BME280;60679;48.888;15.544;2023-01-15T00:36:19;95562.13;;;5.92;68.38
72636;BME280;60679;48.888;15.544;2023-01-15T00:38:44;95556.78;;;5.92;68.15
72636;BME280;60679;48.888;15.544;2023-01-15T00:41:10;95550.78;;;5.97;68.35
72636;BME280;60679;48.888;15.544;2023-01-15T00:43:35;95562.50;;;5.96;68.43
72636;BME280;60679;48.888;15.544;2023-01-15T00:46:01;95541.53;;;5.93;68.41
72636;BME280;60679;48.888;15.544;2023-01-15T00:48:26;95546.91;;;5.93;68.21
72636;BME280;60679;48.888;15.544;2023-01-15T00:50:52;95543.81;;;5.89;68.27
72636;BME280;60679;48.888;15.544;2023-01-15T00:53:17;95548.53;;;5.87;68.42
72636;BME280;60679;48.888;15.544;2023-01-15T00:55:43;95541.53;;;5.93;68.30
72636;BME280;60679;48.888;15.544;2023-01-15T00:58:08;95550.13;;;6.01;68.18
72636;BME280;60679;48.888;15.544;2023-01-15T01:00:33;95542.28;;;6.06;68.76
72636;BME280;60679;48.888;15.544;2023-01-15T01:02:59;95533.34;;;6.19;68.22
72636;BME280;60679;48.888;15.544;2023-01-15T01:05:24;95535.56;;;6.28;68.31
72636;BME280;60679;48.888;15.544;2023-01-15T01:07:49;95523.56;;;6.37;68.34
72636;BME280;60679;48.888;15.544;2023-01-15T01:10:15;95539.84;;;6.36;68.04
72636;BME280;60679;48.888;15.544;2023-01-15T01:12:41;95524.41;;;6.31;68.23
72636;BME280;60679;48.888;15.544;2023-01-15T01:15:07;95532.22;;;6.33;68.02
72636;BME280;60679;48.888;15.544;2023-01-15T01:17:38;95518.66;;;6.28;68.09
72636;BME280;60679;48.888;15.544;2023-01-15T01:20:04;95517.44;;;6.24;68.21
72636;BME280;60679;48.888;15.544;2023-01-15T01:22:30;95517.56;;;6.35;68.58
72636;BME280;60679;48.888;15.544;2023-01-15T01:24:57;95516.53;;;6.36;68.02
72636;BME280;60679;48.888;15.544;2023-01-15T01:27:23;95512.28;;;6.29;67.70
72636;BME280;60679;48.888;15.544;2023-01-15T01:29:48;95519.91;;;6.25;68.09
72636;BME280;60679;48.888;15.544;2023-01-15T01:32:13;95519.09;;;6.25;68.12
72636;BME280;60679;48.888;15.544;2023-01-15T01:34:39;95520.78;;;6.19;67.86
72636;BME280;60679;48.888;15.544;2023-01-15T01:37:04;95506.97;;;6.16;67.91
72636;BME280;60679;48.888;15.544;2023-01-15T01:39:30;95509.22;;;6.19;68.17
72636;BME280;60679;48.888;15.544;2023-01-15T01:41:55;95499.56;;;6.18;68.19
72636;BME280;60679;48.888;15.544;2023-01-15T01:47:15;95500.41;;;6.12;67.98
72636;BME280;60679;48.888;15.544;2023-01-15T01:49:45;95503.09;;;6.12;68.17
72636;BME280;60679;48.888;15.544;2023-01-15T01:52:14;95501.25;;;6.12;67.98
72636;BME280;60679;48.888;15.544;2023-01-15T01:54:43;95504.34;;;6.09;67.87
72636;BME280;60679;48.888;15.544;2023-01-15T01:57:10;95500.03;;;6.02;68.11
72636;BME280;60679;48.888;15.544;2023-01-15T01:59:36;95494.72;;;5.95;68.00
72636;BME280;60679;48.888;15.544;2023-01-15T02:02:02;95491.88;;;5.83;67.85
72636;BME280;60679;48.888;15.544;2023-01-15T02:04:29;95491.72;;;5.72;68.08
72636;BME280;60679;48.888;15.544;2023-01-15T02:06:55;95493.22;;;5.61;67.95
72636;BME280;60679;48.888;15.544;2023-01-15T02:09:22;95496.09;;;5.53;68.05
72636;BME280;60679;48.888;15.544;2023-01-15T02:11:48;95495.50;;;5.45;68.09
72636;BME280;60679;48.888;15.544;2023-01-15T02:14:29;95501.31;;;5.35;68.00
72636;BME280;60679;48.888;15.544;2023-01-15T02:23:14;95498.47;;;5.23;68.43
72636;BME280;60679;48.888;15.544;2023-01-15T02:28:39;95485.31;;;5.22;68.44
72636;BME280;60679;48.888;15.544;2023-01-15T02:31:14;95488.59;;;5.17;68.39
72636;BME280;60679;48.888;15.544;2023-01-15T02:34:05;95482.63;;;5.15;68.29
72636;BME280;60679;48.888;15.544;2023-01-15T02:36:36;95475.22;;;5.11;68.48
72636;BME280;60679;48.888;15.544;2023-01-15T02:39:08;95470.72;;;5.05;68.67
72636;BME280;60679;48.888;15.544;2023-01-15T02:41:39;95459.63;;;5.01;68.66
72636;BME280;60679;48.888;15.544;2023-01-15T02:44:07;95468.66;;;5.00;68.56
72636;BME280;60679;48.888;15.544;2023-01-15T02:46:35;95459.00;;;4.99;68.90
72636;BME280;60679;48.888;15.544;2023-01-15T02:49:04;95454.09;;;4.96;68.62
72636;BME280;60679;48.888;15.544;2023-01-15T02:51:37;95460.03;;;4.92;68.69
72636;BME280;60679;48.888;15.544;2023-01-15T02:54:11;95447.91;;;4.89;68.71
72636;BME280;60679;48.888;15.544;2023-01-15T02:56:39;95452.66;;;4.87;68.63
72636;BME280;60679;48.888;15.544;2023-01-15T02:59:12;95447.72;;;4.84;68.82
72636;BME280;60679;48.888;15.544;2023-01-15T03:01:46;95438.03;;;4.83;68.79
72636;BME280;60679;48.888;15.544;2023-01-15T03:07:35;95424.06;;;4.81;68.75
72636;BME280;60679;48.888;15.544;2023-01-15T03:10:03;95431.47;;;4.79;68.82
72636;BME280;60679;48.888;15.544;2023-01-15T03:12:56;95424.69;;;4.77;68.76
72636;BME280;60679;48.888;15.544;2023-01-15T03:15:51;95432.50;;;4.78;68.60
72636;BME280;60679;48.888;15.544;2023-01-15T03:18:52;95423.66;;;4.78;68.73
72636;BME280;60679;48.888;15.544;2023-01-15T03:21:28;95420.38;;;4.76;68.61
72636;BME280;60679;48.888;15.544;2023-01-15T03:23:56;95428.63;;;4.74;68.52
72636;BME280;60679;48.888;15.544;2023-01-15T03:26:23;95421.38;;;4.75;68.61
72636;BME280;60679;48.888;15.544;2023-01-15T03:28:49;95415.63;;;4.78;68.73
72636;BME280;60679;48.888;15.544;2023-01-15T03:31:15;95406.38;;;4.80;68.47
72636;BME280;60679;48.888;15.544;2023-01-15T03:33:41;95412.53;;;4.81;68.69
72636;BME280;60679;48.888;15.544;2023-01-15T03:36:07;95408.44;;;4.85;68.80
72636;BME280;60679;48.888;15.544;2023-01-15T03:38:34;95399.16;;;4.94;68.52
72636;BME280;60679;48.888;15.544;2023-01-15T03:44:34;95376.09;;;4.93;68.39
72636;BME280;60679;48.888;15.544;2023-01-15T03:49:51;95369.75;;;4.87;68.39
72636;BME280;60679;48.888;15.544;2023-01-15T03:52:44;95369.56;;;4.82;68.42
72636;BME280;60679;48.888;15.544;2023-01-15T03:55:17;95373.06;;;4.76;68.46
72636;BME280;60679;48.888;15.544;2023-01-15T03:58:04;95376.16;;;4.66;68.42
72636;BME280;60679;48.888;15.544;2023-01-15T04:00:39;95378.66;;;4.55;68.63
72636;BME280;60679;48.888;15.544;2023-01-15T04:03:07;95368.59;;;4.50;68.65
72636;BME280;60679;48.888;15.544;2023-01-15T04:05:35;95357.91;;;4.50;68.88
72636;BME280;60679;48.888;15.544;2023-01-15T04:08:02;95372.91;;;4.51;68.50
72636;BME280;60679;48.888;15.544;2023-01-15T04:10:28;95362.00;;;4.53;68.73
72636;BME280;60679;48.888;15.544;2023-01-15T04:12:53;95361.78;;;4.54;68.94
72636;BME280;60679;48.888;15.544;2023-01-15T04:15:18;95359.13;;;4.54;68.35
72636;BME280;60679;48.888;15.544;2023-01-15T04:17:44;95364.28;;;4.49;68.51
72636;BME280;60679;48.888;15.544;2023-01-15T04:20:10;95391.63;;;4.38;68.63
72636;BME280;60679;48.888;15.544;2023-01-15T04:22:35;95379.50;;;4.29;68.66
72636;BME280;60679;48.888;15.544;2023-01-15T04:25:05;95356.28;;;4.30;68.77
72636;BME280;60679;48.888;15.544;2023-01-15T04:27:31;95388.97;;;4.32;68.74
72636;BME280;60679;48.888;15.544;2023-01-15T04:29:56;95370.47;;;4.30;68.75
72636;BME280;60679;48.888;15.544;2023-01-15T04:32:22;95379.50;;;4.29;68.63
72636;BME280;60679;48.888;15.544;2023-01-15T04:34:47;95360.78;;;4.29;69.03
72636;BME280;60679;48.888;15.544;2023-01-15T04:37:14;95363.69;;;4.28;68.54
72636;BME280;60679;48.888;15.544;2023-01-15T04:39:40;95378.28;;;4.25;68.83
72636;BME280;60679;48.888;15.544;2023-01-15T04:42:10;95349.50;;;4.21;68.84
72636;BME280;60679;48.888;15.544;2023-01-15T04:44:54;95363.72;;;4.15;68.73
72636;BME280;60679;48.888;15.544;2023-01-15T04:47:20;95366.16;;;4.09;68.83
72636;BME280;60679;48.888;15.544;2023-01-15T04:49:45;95382.81;;;4.05;68.98
72636;BME280;60679;48.888;15.544;2023-01-15T04:52:10;95378.28;;;3.99;68.90
72636;BME280;60679;48.888;15.544;2023-01-15T04:54:36;95385.88;;;3.95;69.36
72636;BME280;60679;48.888;15.544;2023-01-15T04:57:03;95393.69;;;3.97;69.24
72636;BME280;60679;48.888;15.544;2023-01-15T04:59:29;95371.09;;;3.99;69.31
72636;BME280;60679;48.888;15.544;2023-01-15T05:01:55;95379.09;;;3.99;69.18
72636;BME280;60679;48.888;15.544;2023-01-15T05:04:20;95374.38;;;4.01;69.17
72636;BME280;60679;48.888;15.544;2023-01-15T05:06:46;95369.03;;;4.01;69.12
72636;BME280;60679;48.888;15.544;2023-01-15T05:09:11;95384.44;;;3.99;69.05
72636;BME280;60679;48.888;15.544;2023-01-15T05:11:38;95368.22;;;4.01;69.08
72636;BME280;60679;48.888;15.544;2023-01-15T05:14:04;95375.44;;;4.00;69.34
72636;BME280;60679;48.888;15.544;2023-01-15T05:16:30;95366.59;;;4.00;69.32
72636;BME280;60679;48.888;15.544;2023-01-15T05:18:58;95367.59;;;3.99;69.17
72636;BME280;60679;48.888;15.544;2023-01-15T05:21:27;95364.09;;;3.98;69.11
72636;BME280;60679;48.888;15.544;2023-01-15T05:23:55;95351.16;;;3.95;69.04
72636;BME280;60679;48.888;15.544;2023-01-15T05:26:22;95335.75;;;3.91;69.38
72636;BME280;60679;48.888;15.544;2023-01-15T05:28:48;95334.53;;;3.87;69.30
72636;BME280;60679;48.888;15.544;2023-01-15T05:31:16;95326.13;;;3.83;69.21
72636;BME280;60679;48.888;15.544;2023-01-15T05:33:42;95326.72;;;3.79;69.25
72636;BME280;60679;48.888;15.544;2023-01-15T05:36:10;95310.50;;;3.74;69.38
72636;BME280;60679;48.888;15.544;2023-01-15T05:38:37;95305.78;;;3.69;69.36
72636;BME280;60679;48.888;15.544;2023-01-15T05:41:04;95300.44;;;3.63;69.33
72636;BME280;60679;48.888;15.544;2023-01-15T05:43:49;95322.00;;;3.55;69.33
72636;BME280;60679;48.888;15.544;2023-01-15T05:46:14;95335.91;;;3.50;69.41
72636;BME280;60679;48.888;15.544;2023-01-15T05:48:40;95336.75;;;3.50;69.47
72636;BME280;60679;48.888;15.544;2023-01-15T05:51:05;95348.25;;;3.51;69.60
72636;BME280;60679;48.888;15.544;2023-01-15T05:53:30;95350.31;;;3.49;69.71
72636;BME280;60679;48.888;15.544;2023-01-15T05:56:02;95345.16;;;3.47;69.80
72636;BME280;60679;48.888;15.544;2023-01-15T05:58:27;95347.81;;;3.47;69.70
72636;BME280;60679;48.888;15.544;2023-01-15T06:00:53;95344.38;;;3.47;70.03
72636;BME280;60679;48.888;15.544;2023-01-15T06:03:21;95344.97;;;3.49;69.83
72636;BME280;60679;48.888;15.544;2023-01-15T06:05:53;95344.16;;;3.48;69.89
72636;BME280;60679;48.888;15.544;2023-01-15T06:08:20;95341.47;;;3.48;70.12
72636;BME280;60679;48.888;15.544;2023-01-15T06:10:46;95344.38;;;3.47;69.92
72636;BME280;60679;48.888;15.544;2023-01-15T06:13:13;95337.56;;;3.44;70.10
72636;BME280;60679;48.888;15.544;2023-01-15T06:15:39;95347.84;;;3.41;70.45
72636;BME280;60679;48.888;15.544;2023-01-15T06:18:04;95334.06;;;3.37;70.10
72636;BME280;60679;48.888;15.544;2023-01-15T06:20:30;95320.13;;;3.35;70.29
72636;BME280;60679;48.888;15.544;2023-01-15T06:22:55;95301.84;;;3.32;70.29
72636;BME280;60679;48.888;15.544;2023-01-15T06:25:21;95290.53;;;3.30;70.63
72636;BME280;60679;48.888;15.544;2023-01-15T06:27:46;95277.19;;;3.30;70.70
72636;BME280;60679;48.888;15.544;2023-01-15T06:30:14;95271.25;;;3.28;70.54
72636;BME280;60679;48.888;15.544;2023-01-15T06:32:39;95265.72;;;3.23;70.63
72636;BME280;60679;48.888;15.544;2023-01-15T06:35:05;95254.63;;;3.20;70.76
72636;BME280;60679;48.888;15.544;2023-01-15T06:37:31;95247.03;;;3.17;70.82
72636;BME280;60679;48.888;15.544;2023-01-15T06:39:56;95246.63;;;3.13;70.98
72636;BME280;60679;48.888;15.544;2023-01-15T06:42:21;95248.66;;;3.11;70.93
72636;BME280;60679;48.888;15.544;2023-01-15T06:45:07;95237.38;;;3.09;70.94
72636;BME280;60679;48.888;15.544;2023-01-15T06:47:51;95228.97;;;3.06;71.00
72636;BME280;60679;48.888;15.544;2023-01-15T06:50:16;95220.34;;;3.04;71.17
72636;BME280;60679;48.888;15.544;2023-01-15T06:52:42;95212.53;;;3.02;71.04
72636;BME280;60679;48.888;15.544;2023-01-15T06:55:07;95219.94;;;3.00;71.18
72636;BME280;60679;48.888;15.544;2023-01-15T06:57:33;95224.44;;;3.00;71.00
72636;BME280;60679;48.888;15.544;2023-01-15T06:59:58;95217.66;;;2.97;71.25
72636;BME280;60679;48.888;15.544;2023-01-15T07:02:24;95219.50;;;2.97;71.25
72636;BME280;60679;48.888;15.544;2023-01-15T07:04:49;95229.56;;;2.95;71.39
72636;BME280;60679;48.888;15.544;2023-01-15T07:07:17;95226.06;;;2.94;71.40
72636;BME280;60679;48.888;15.544;2023-01-15T07:09:43;95227.91;;;2.93;71.48
72636;BME280;60679;48.888;15.544;2023-01-15T07:12:08;95227.72;;;2.95;71.49
72636;BME280;60679;48.888;15.544;2023-01-15T07:14:34;95233.06;;;2.95;71.26
72636;BME280;60679;48.888;15.544;2023-01-15T07:16:59;95226.06;;;2.94;71.43
72636;BME280;60679;48.888;15.544;2023-01-15T07:19:25;95224.22;;;2.95;71.49
72636;BME280;60679;48.888;15.544;2023-01-15T07:21:51;95225.06;;;2.95;71.38
72636;BME280;60679;48.888;15.544;2023-01-15T07:24:16;95232.03;;;2.96;71.41
72636;BME280;60679;48.888;15.544;2023-01-15T07:26:42;95224.66;;;2.98;71.62
72636;BME280;60679;48.888;15.544;2023-01-15T07:29:09;95224.44;;;3.00;71.53
72636;BME280;60679;48.888;15.544;2023-01-15T07:31:35;95215.44;;;3.01;71.72
72636;BME280;60679;48.888;15.544;2023-01-15T07:34:00;95210.91;;;3.01;71.79
72636;BME280;60679;48.888;15.544;2023-01-15T07:36:26;95209.47;;;3.05;71.63
72636;BME280;60679;48.888;15.544;2023-01-15T07:38:51;95205.56;;;3.08;71.76
72636;BME280;60679;48.888;15.544;2023-01-15T07:41:16;95208.88;;;3.10;71.50
72636;BME280;60679;48.888;15.544;2023-01-15T07:44:00;95209.50;;;3.12;71.57
72636;BME280;60679;48.888;15.544;2023-01-15T07:46:44;95210.09;;;3.14;71.54
72636;BME280;60679;48.888;15.544;2023-01-15T07:49:28;95209.91;;;3.15;71.79
72636;BME280;60679;48.888;15.544;2023-01-15T07:52:14;95207.03;;;3.17;71.73
72636;BME280;60679;48.888;15.544;2023-01-15T07:54:40;95208.69;;;3.18;71.72
72636;BME280;60679;48.888;15.544;2023-01-15T07:57:06;95218.75;;;3.16;71.80
72636;BME280;60679;48.888;15.544;2023-01-15T07:59:32;95215.84;;;3.17;71.97
72636;BME280;60679;48.888;15.544;2023-01-15T08:01:57;95216.47;;;3.19;72.21
72636;BME280;60679;48.888;15.544;2023-01-15T08:04:23;95222.44;;;3.21;72.09
72636;BME280;60679;48.888;15.544;2023-01-15T08:06:48;95224.88;;;3.23;71.94
72636;BME280;60679;48.888;15.544;2023-01-15T08:09:13;95228.56;;;3.22;71.82
72636;BME280;60679;48.888;15.544;2023-01-15T08:11:39;95220.97;;;3.25;72.19
72636;BME280;60679;48.888;15.544;2023-01-15T08:14:23;95223.66;;;3.32;71.95
72636;BME280;60679;48.888;15.544;2023-01-15T08:17:07;95228.38;;;3.36;72.11
72636;BME280;60679;48.888;15.544;2023-01-15T08:19:32;95226.72;;;3.42;71.65
72636;BME280;60679;48.888;15.544;2023-01-15T08:21:58;95237.41;;;3.42;71.66
72636;BME280;60679;48.888;15.544;2023-01-15T08:24:25;95220.97;;;3.45;71.91
72636;BME280;60679;48.888;15.544;2023-01-15T08:26:51;95229.41;;;3.48;71.94
72636;BME280;60679;48.888;15.544;2023-01-15T08:29:17;95231.84;;;3.50;71.80
72636;BME280;60679;48.888;15.544;2023-01-15T08:31:42;95221.63;;;3.47;71.88
72636;BME280;60679;48.888;15.544;2023-01-15T08:34:08;95225.09;;;3.47;72.00
72636;BME280;60679;48.888;15.544;2023-01-15T08:36:36;95241.31;;;3.53;72.26
72636;BME280;60679;48.888;15.544;2023-01-15T08:39:02;95231.69;;;3.58;71.94
72636;BME280;60679;48.888;15.544;2023-01-15T08:41:31;95235.16;;;3.65;71.92
72636;BME280;60679;48.888;15.544;2023-01-15T08:43:56;95223.03;;;3.69;71.98
72636;BME280;60679;48.888;15.544;2023-01-15T08:46:22;95226.91;;;3.73;71.95
72636;BME280;60679;48.888;15.544;2023-01-15T08:48:47;95224.66;;;3.77;71.72
72636;BME280;60679;48.888;15.544;2023-01-15T08:51:13;95224.66;;;3.83;71.91
72636;BME280;60679;48.888;15.544;2023-01-15T08:53:39;95222.38;;;3.87;71.80
72636;BME280;60679;48.888;15.544;2023-01-15T08:56:11;95232.44;;;3.91;71.93
72636;BME280;60679;48.888;15.544;2023-01-15T08:58:37;95218.28;;;3.91;71.78
72636;BME280;60679;48.888;15.544;2023-01-15T09:01:07;95239.22;;;3.87;71.86
72636;BME280;60679;48.888;15.544;2023-01-15T09:03:33;95234.50;;;3.83;71.95
72636;BME280;60679;48.888;15.544;2023-01-15T09:05:59;95243.75;;;3.87;72.07
72636;BME280;60679;48.888;15.544;2023-01-15T09:08:25;95242.31;;;3.84;72.14
72636;BME280;60679;48.888;15.544;2023-01-15T09:10:58;95240.28;;;3.80;71.96
72636;BME280;60679;48.888;15.544;2023-01-15T09:13:24;95251.78;;;3.80;72.20
72636;BME280;60679;48.888;15.544;2023-01-15T09:15:50;95244.38;;;3.82;72.12
72636;BME280;60679;48.888;15.544;2023-01-15T09:18:15;95252.78;;;3.79;72.08
72636;BME280;60679;48.888;15.544;2023-01-15T09:20:44;95241.09;;;3.80;72.25
72636;BME280;60679;48.888;15.544;2023-01-15T09:23:10;95220.16;;;3.84;72.09
72636;BME280;60679;48.888;15.544;2023-01-15T09:25:35;95212.34;;;3.89;72.02
72636;BME280;60679;48.888;15.544;2023-01-15T09:28:00;95203.06;;;3.91;72.05
72636;BME280;60679;48.888;15.544;2023-01-15T09:30:26;95203.50;;;3.95;72.22
72636;BME280;60679;48.888;15.544;2023-01-15T09:32:51;95205.72;;;3.98;71.91
72636;BME280;60679;48.888;15.544;2023-01-15T09:35:17;95212.72;;;3.99;72.02
72636;BME280;60679;48.888;15.544;2023-01-15T09:37:42;95205.28;;;4.01;72.06
72636;BME280;60679;48.888;15.544;2023-01-15T09:46:11;95209.03;;;3.87;72.41
72636;BME280;60679;48.888;15.544;2023-01-15T09:56:30;95170.41;;;3.96;72.49
72636;BME280;60679;48.888;15.544;2023-01-15T09:58:58;95172.25;;;3.95;72.45
72636;BME280;60679;48.888;15.544;2023-01-15T10:01:28;95169.19;;;3.92;72.69
72636;BME280;60679;48.888;15.544;2023-01-15T10:06:50;95168.19;;;3.86;72.42
72636;BME280;60679;48.888;15.544;2023-01-15T10:09:23;95156.25;;;3.82;72.46
72636;BME280;60679;48.888;15.544;2023-01-15T10:11:56;95160.19;;;3.80;72.64
72636;BME280;60679;48.888;15.544;2023-01-15T10:14:46;95142.31;;;3.74;72.81
72636;BME280;60679;48.888;15.544;2023-01-15T10:17:28;95157.50;;;3.73;72.60
72636;BME280;60679;48.888;15.544;2023-01-15T10:19:59;95153.41;;;3.71;72.74
72636;BME280;60679;48.888;15.544;2023-01-15T10:22:40;95158.16;;;3.69;72.72
72636;BME280;60679;48.888;15.544;2023-01-15T10:25:15;95149.31;;;3.68;72.70
72636;BME280;60679;48.888;15.544;2023-01-15T10:27:45;95148.72;;;3.66;72.82
72636;BME280;60679;48.888;15.544;2023-01-15T10:30:28;95139.66;;;3.67;72.84
72636;BME280;60679;48.888;15.544;2023-01-15T10:33:00;95142.31;;;3.67;72.68
72636;BME280;60679;48.888;15.544;2023-01-15T10:35:56;95141.13;;;3.63;72.91
72636;BME280;60679;48.888;15.544;2023-01-15T10:38:42;95132.72;;;3.60;72.90
72636;BME280;60679;48.888;15.544;2023-01-15T10:41:47;95129.63;;;3.63;72.86
72636;BME280;60679;48.888;15.544;2023-01-15T10:44:23;95129.41;;;3.64;72.83
72636;BME280;60679;48.888;15.544;2023-01-15T10:46:55;95137.00;;;3.67;72.79
72636;BME280;60679;48.888;15.544;2023-01-15T10:49:27;95138.81;;;3.73;73.01
72636;BME280;60679;48.888;15.544;2023-01-15T10:52:11;95135.97;;;3.75;72.71
72636;BME280;60679;48.888;15.544;2023-01-15T10:54:50;95134.50;;;3.79;72.97
72636;BME280;60679;48.888;15.544;2023-01-15T10:57:37;95129.16;;;3.85;72.67
72636;BME280;60679;48.888;15.544;2023-01-15T11:00:09;95123.97;;;3.97;72.62
72636;BME280;60679;48.888;15.544;2023-01-15T11:02:48;95116.97;;;4.09;72.40
72636;BME280;60679;48.888;15.544;2023-01-15T11:05:17;95112.78;;;4.20;72.35
72636;BME280;60679;48.888;15.544;2023-01-15T11:07:48;95109.88;;;4.28;72.35
72636;BME280;60679;48.888;15.544;2023-01-15T11:10:17;95110.88;;;4.33;72.15
72636;BME280;60679;48.888;15.544;2023-01-15T11:12:54;95108.41;;;4.32;72.31
72636;BME280;60679;48.888;15.544;2023-01-15T11:15:44;95096.09;;;4.31;72.13
72636;BME280;60679;48.888;15.544;2023-01-15T11:18:32;95096.09;;;4.31;72.23
72636;BME280;60679;48.888;15.544;2023-01-15T11:21:20;95083.75;;;4.30;72.13
72636;BME280;60679;48.888;15.544;2023-01-15T11:23:46;95084.56;;;4.30;72.36
72636;BME280;60679;48.888;15.544;2023-01-15T11:26:24;95074.72;;;4.31;72.35
72636;BME280;60679;48.888;15.544;2023-01-15T11:28:51;95067.72;;;4.30;72.49
72636;BME280;60679;48.888;15.544;2023-01-15T11:31:19;95066.72;;;4.24;72.41
72636;BME280;60679;48.888;15.544;2023-01-15T11:33:58;95074.56;;;4.19;72.76
72636;BME280;60679;48.888;15.544;2023-01-15T11:36:26;95069.88;;;4.15;72.77
72636;BME280;60679;48.888;15.544;2023-01-15T11:38:52;95054.28;;;4.12;72.90
72636;BME280;60679;48.888;15.544;2023-01-15T11:41:23;95069.66;;;4.09;72.48
72636;BME280;60679;48.888;15.544;2023-01-15T11:44:12;95064.16;;;4.04;72.97
72636;BME280;60679;48.888;15.544;2023-01-15T11:46:56;95060.66;;;4.04;73.15
72636;BME280;60679;48.888;15.544;2023-01-15T11:49:49;95063.56;;;4.02;73.03
72636;BME280;60679;48.888;15.544;2023-01-15T11:52:53;95060.28;;;4.00;73.09
72636;BME280;60679;48.888;15.544;2023-01-15T11:55:25;95040.53;;;4.01;72.95
72636;BME280;60679;48.888;15.544;2023-01-15T11:57:52;95052.28;;;4.00;73.02
72636;BME280;60679;48.888;15.544;2023-01-15T12:00:21;95039.13;;;3.99;73.10
72636;BME280;60679;48.888;15.544;2023-01-15T12:02:48;95022.91;;;4.00;73.00
72636;BME280;60679;48.888;15.544;2023-01-15T12:05:28;95017.56;;;4.00;73.11
72636;BME280;60679;48.888;15.544;2023-01-15T12:07:56;94986.75;;;3.98;73.22
72636;BME280;60679;48.888;15.544;2023-01-15T12:10:37;94982.44;;;3.97;73.03
72636;BME280;60679;48.888;15.544;2023-01-15T12:24:24;94971.97;;;3.95;73.06
72636;BME280;60679;48.888;15.544;2023-01-15T12:27:21;94982.09;;;3.87;73.22
72636;BME280;60679;48.888;15.544;2023-01-15T12:29:59;94996.34;;;3.74;72.86
72636;BME280;60679;48.888;15.544;2023-01-15T12:32:32;94991.00;;;3.74;73.46
72636;BME280;60679;48.888;15.544;2023-01-15T12:35:06;94994.84;;;3.78;73.41
72636;BME280;60679;48.888;15.544;2023-01-15T12:37:51;94994.25;;;3.83;73.35
72636;BME280;60679;48.888;15.544;2023-01-15T12:40:24;94995.44;;;3.87;73.25
72636;BME280;60679;48.888;15.544;2023-01-15T12:42:53;95001.56;;;3.94;73.01
72636;BME280;60679;48.888;15.544;2023-01-15T12:45:42;95019.00;;;3.96;73.13
72636;BME280;60679;48.888;15.544;2023-01-15T12:48:33;95010.19;;;3.96;73.22
72636;BME280;60679;48.888;15.544;2023-01-15T12:51:04;95006.25;;;3.98;72.99
72636;BME280;60679;48.888;15.544;2023-01-15T12:53:44;95022.28;;;3.98;73.04
72636;BME280;60679;48.888;15.544;2023-01-15T12:56:13;95015.91;;;3.99;72.91
72636;BME280;60679;48.888;15.544;2023-01-15T13:03:02;95006.69;;;3.95;72.97
72636;BME280;60679;48.888;15.544;2023-01-15T13:05:17;95009.84;;;3.86;73.29
72636;BME280;60679;48.888;15.544;2023-01-15T13:10:33;94987.66;;;3.85;73.39
72636;BME280;60679;48.888;15.544;2023-01-15T13:13:20;95000.44;;;3.77;73.43
72636;BME280;60679;48.888;15.544;2023-01-15T13:15:51;94993.84;;;3.73;73.79
72636;BME280;60679;48.888;15.544;2023-01-15T13:20:58;94998.00;;;3.69;73.74
72636;BME280;60679;48.888;15.544;2023-01-15T13:23:56;95004.16;;;3.69;73.54
72636;BME280;60679;48.888;15.544;2023-01-15T13:34:13;94995.75;;;3.66;73.64
72636;BME280;60679;48.888;15.544;2023-01-15T13:36:45;94990.84;;;3.63;73.77
72636;BME280;60679;48.888;15.544;2023-01-15T13:39:17;94990.06;;;3.56;73.90
72636;BME280;60679;48.888;15.544;2023-01-15T13:41:47;94989.25;;;3.48;73.98
72636;BME280;60679;48.888;15.544;2023-01-15T13:44:36;94986.41;;;3.43;73.86
72636;BME280;60679;48.888;15.544;2023-01-15T13:47:08;94982.53;;;3.39;74.05
72636;BME280;60679;48.888;15.544;2023-01-15T13:49:44;94996.91;;;3.38;74.05
72636;BME280;60679;48.888;15.544;2023-01-15T13:52:37;95010.25;;;3.38;74.29
72636;BME280;60679;48.888;15.544;2023-01-15T13:55:30;95013.34;;;3.35;73.99
72636;BME280;60679;48.888;15.544;2023-01-15T13:57:56;95017.25;;;3.33;74.30
72636;BME280;60679;48.888;15.544;2023-01-15T14:00:33;95034.25;;;3.32;74.33
72636;BME280;60679;48.888;15.544;2023-01-15T14:06:08;95059.69;;;3.34;74.67
72636;BME280;60679;48.888;15.544;2023-01-15T14:08:44;95073.63;;;3.36;74.56
72636;BME280;60679;48.888;15.544;2023-01-15T14:26:01;95153.47;;;3.31;74.80
72636;BME280;60679;48.888;15.544;2023-01-15T14:31:41;95159.41;;;3.40;74.72
72636;BME280;60679;48.888;15.544;2023-01-15T14:34:24;95162.69;;;3.42;74.94
72636;BME280;60679;48.888;15.544;2023-01-15T14:37:19;95171.94;;;3.39;74.73
72636;BME280;60679;48.888;15.544;2023-01-15T14:39:54;95184.06;;;3.35;74.83
72636;BME280;60679;48.888;15.544;2023-01-15T14:42:37;95189.59;;;3.34;74.76
72636;BME280;60679;48.888;15.544;2023-01-15T14:45:42;95202.31;;;3.32;74.88
72636;BME280;60679;48.888;15.544;2023-01-15T14:50:53;95221.00;;;3.32;75.05